This is the latest recevied weather packets stored in our database for station/object KO4APQ. If no packets are shown the sender has not sent any weather packets the latest 10 day(s).
| Time | Temp. | Humidity | Pressure | Rain* | Wind** | Luminosity | Snow |
|---|---|---|---|---|---|---|---|
| 1777845000 | 21.67° C | 30% | 1016.6 hPa | 0 mm | - | 384 W/m² | - |
| 1777844698 | 21.67° C | 30% | 1016.6 hPa | 0 mm | - | 401 W/m² | - |
| 1777844093 | 21.67° C | 28% | 1016.6 hPa | 0 mm | - | 444 W/m² | - |
| 1777841968 | 21.67° C | 26% | 1016.9 hPa | 0 mm | - | 577 W/m² | - |
| 1777840756 | 21.11° C | 27% | 1017.1 hPa | 0 mm | - | 645 W/m² | - |
| 1777840150 | 21.67° C | 28% | 1017.3 hPa | 0 mm | - | 677 W/m² | - |
| 1777839546 | 21.67° C | 28% | 1017.5 hPa | 0 mm | - | 708 W/m² | - |
| 1777838941 | 21.11° C | 30% | 1017.7 hPa | 0 mm | - | 740 W/m² | - |
| 1777838334 | 20.56° C | 30% | 1017.8 hPa | 0 mm | - | 767 W/m² | - |
| 1777837120 | 21.11° C | 30% | 1018.2 hPa | 0 mm | - | 814 W/m² | - |
| 1777835904 | 20.56° C | 29% | 1018.6 hPa | 0 mm | - | 870 W/m² | - |
| 1777835601 | 20° C | 31% | 1018.7 hPa | 0 mm | - | 879 W/m² | - |
| 1777833480 | 19.44° C | 36% | 1019 hPa | 0 mm | - | 938 W/m² | - |
| 1777833177 | 19.44° C | 35% | 1019.2 hPa | 0 mm | - | 946 W/m² | - |
| 1777832875 | 19.44° C | 35% | 1019.1 hPa | 0 mm | - | 951 W/m² | - |
| 1777832574 | 20° C | 35% | 1019.1 hPa | 0 mm | - | 958 W/m² | - |
| 1777829244 | 18.33° C | 37% | 1019.7 hPa | 0 mm | - | 986 W/m² | - |
| 1777828941 | 18.89° C | 36% | 1019.7 hPa | 0 mm | - | 989 W/m² | - |
| 1777827122 | 17.78° C | 42% | 1020.4 hPa | 0 mm | - | 975 W/m² | - |
| 1777826818 | 17.22° C | 38% | 1020.5 hPa | 0 mm | - | 973 W/m² | - |
| 1777825909 | 17.22° C | 38% | 1020.5 hPa | 0 mm | - | 960 W/m² | - |
| 1777825606 | 17.22° C | 40% | 1020.7 hPa | 0 mm | - | 950 W/m² | - |
| 1777825304 | 17.22° C | 42% | 1020.7 hPa | 0 mm | - | 942 W/m² | - |
| 1777825001 | 17.22° C | 39% | 1020.7 hPa | 0 mm | - | 939 W/m² | - |
| 1777824697 | 17.78° C | 38% | 1020.6 hPa | 0 mm | - | 934 W/m² | - |
* Rain latest hour (hover to see other rain measurements)
** Current wind speed in m/s (hover to see current wind gust speed)